Selmer, TN (38375)

10:44 PM CDT on October 24, 2014 (GMT -0500)
City | Change Station
CLOSE
Current Station
Personal Weather Station
Location: Corinth, MS
Elevation: 435 ft
Nearby Weather Stations

Elev 435 ft 34.95 °N, 88.50 °W | Updated 1 minute ago

Clear
Clear
53.8 °F
Feels Like 53.8 °F
N
0.0
Wind Variable Wind from North
Gusts 0.0 mph

Today
High -- | Low -- °F
--% Chance of Precip.
Yesterday
High -- | Low -- °F
Precip. -- in
7:08 AM 6:08 PM
New Moon, 2% visible
Pressure 30.10 in
Visibility 2.5 miles
Clouds Clear
Dew Point 50 °F
Humidity 88%
Rainfall 0.00 in
Snow Depth Not available.
UV 0 out of 12
Pollen .70 out of 12
Air Quality Not available.
Flu Activity No Activity
METAR KCRX 250335Z AUTO 00000KT 2 1/2SM BR CLR 11/10 A3010 RMK AO2 VIS 1 1/4V5

More Conditions Fewer Conditions

Pressure 30.10 in
Visibility 2.5 miles
Clouds Clear
Dew Point 50 °F
Humidity 88%
Rainfall 0.00 in
Snow Depth Not available.
UV 0 out of 12
Pollen .70 out of 12
Air Quality Not available.
Flu Activity No Activity
METAR KCRX 250335Z AUTO 00000KT 2 1/2SM BR CLR 11/10 A3010 RMK AO2 VIS 1 1/4V5

More Conditions Fewer Conditions

10-Day Weather Forecast

Almanac

Astronomy

Oct. 24, 2014 Rise Set
Actual Time 7:08 AM CDT 6:08 PM CDT
Civil Twilight 6:42 AM CDT 6:34 PM CDT
Nautical Twilight 6:12 AM CDT 7:03 PM CDT
Astronomical Twilight 5:43 AM CDT 7:33 PM CDT
Moon 7:46 AM CDT (10/24) 6:50 PM CDT (10/24)
Length of Visible Light 11h 51m
Length of Day
11h 00m
Tomorrow will be 2m 2s shorter.
New Moon, 2% of the Moon is Illuminated
Today
New Moon
Oct 30
First Quarter
Nov 6
Full
Nov 14
Last Quarter
Nov 22
New

Today's Extremes

State Highs State Lows

Community

WunderPhotos

Upload Photos

1,764,772 photos uploaded!

Nearby

Snow Depth

Station Depth Elevation
No new snow has been reported.

Earthquake Activity

City Distance Mag. Time & Date
No recent earthquake activity has been reported nearby.
Minimum magnitude displayed is 2.5.

Coastal Water Temperatures

Place Temperature
No Stations Reporting

Nearby Weather Stations